Airfield :
LOGIN :

Register | Disclaimer

   EN    FR    IT 

 










Legend :    VFR   Marginal VFR   IFR   Intensive IFR   Very Intensive IFR
Visi :
Ceiling :
>= 8 km
>= 3000ft
5 to 8 km
1000 to 3000 ft
1500m to 5 km
500 to 1000 ft
800 to 1500m
200 to 500 ft
< 800m
< 200 ft
Symbols :   Thunderstorms  Fog  Heavy snow  Heavy precipitations  Wind > 20 kt
SIGMETs :     Misc.  Thunderstorms  Icing  Turbulence  Mountain Waves  Volcanic Ashes







- Airport Elevation : 59 ft
- IATA code : TSF


LIPH - Treviso

CURRENT METAR :
  • 220220Z AUTO VRB01KT 0000 R07/0200N FG VV001 02/02 Q1024

EXPIRED METARs :
  • 220150Z AUTO VRB01KT 0000 R07/0175N FG VV001 02/02 Q1025
  • 220120Z AUTO VRB01KT 0000 R07/0175N FG VV001 03/03 Q1025
  • 220050Z AUTO VRB01KT 0000 R07/0175N FG VV001 03/03 Q1025
  • 220020Z AUTO VRB01KT 0000 R07/0175N FG VV001 02/02 Q1025

TAF TAF LIPH
Valid from the 22 at 00:00 until the 23 at 00:00 UTC


212300Z 2200/2224 VRB03KT 0400 FG BKN001
BECMG 2208/2210 1200 BR NSC
BECMG 2210/2212 4000
No reported NOTAMs for that airfield.



MET'MAP, your aeronautical weather chart ! - Copyright ORBIFLY December 2007 - Disclaimer

ORBIFLY MET'MAP TEAM :

Programming & Development : Alexandra Zaïnal
Concept & Development : Baudouin d'Aumeries
Co-Development & Prog : Marc-Olivier Méhu
Technical & hardware support : Manuel Goepfert

Contact : metmap@orbifly.com




SOURCES & CREDITS :

   NOAA